sensor_id;sensor_type;location;lat;lon;timestamp;P1;P2;P0
76043;PMS7003;64740;34.694;33.088;2024-01-16T00:03:01;7.2;6.2;4.1
76043;PMS7003;64740;34.694;33.088;2024-01-16T00:08:15;8.1;6.9;4.2
76043;PMS7003;64740;34.694;33.088;2024-01-16T00:13:03;8;6.9;4.1
76043;PMS7003;64740;34.694;33.088;2024-01-16T00:17:53;9.4;7.9;4.8
76043;PMS7003;64740;34.694;33.088;2024-01-16T00:23:15;8.3;6.9;4.3
76043;PMS7003;64740;34.694;33.088;2024-01-16T00:27:54;7.1;6.5;3.8
76043;PMS7003;64740;34.694;33.088;2024-01-16T00:32:41;8.1;6.7;3.7
76043;PMS7003;64740;34.694;33.088;2024-01-16T00:37:53;7.3;6.2;3.8
76043;PMS7003;64740;34.694;33.088;2024-01-16T00:42:41;7.4;6.2;3.8
76043;PMS7003;64740;34.694;33.088;2024-01-16T00:47:33;6.7;5.8;3.8
76043;PMS7003;64740;34.694;33.088;2024-01-16T00:52:33;7.5;6.2;3.5
76043;PMS7003;64740;34.694;33.088;2024-01-16T00:58:03;5.6;4.9;3.1
76043;PMS7003;64740;34.694;33.088;2024-01-16T01:02:51;6;4.5;2.6
76043;PMS7003;64740;34.694;33.088;2024-01-16T01:08:05;5.1;4.3;2.7
76043;PMS7003;64740;34.694;33.088;2024-01-16T01:12:53;3.9;3.2;1.9
76043;PMS7003;64740;34.694;33.088;2024-01-16T01:18:07;4.7;3.9;2.5
76043;PMS7003;64740;34.694;33.088;2024-01-16T01:22:59;4.5;3.8;2.1
76043;PMS7003;64740;34.694;33.088;2024-01-16T01:28:03;3.8;3.4;1.8
76043;PMS7003;64740;34.694;33.088;2024-01-16T01:32:49;2.4;2.1;1.1
76043;PMS7003;64740;34.694;33.088;2024-01-16T01:38:01;2.9;2.6;1.3
76043;PMS7003;64740;34.694;33.088;2024-01-16T01:43:19;5.4;4.2;2.5
76043;PMS7003;64740;34.694;33.088;2024-01-16T01:48:03;3.9;3.1;1.7
76043;PMS7003;64740;34.694;33.088;2024-01-16T01:52:33;4.6;3.8;1.9
76043;PMS7003;64740;34.694;33.088;2024-01-16T01:58:15;4.7;3.7;2.2
76043;PMS7003;64740;34.694;33.088;2024-01-16T02:02:45;4.8;4.4;2.8
76043;PMS7003;64740;34.694;33.088;2024-01-16T02:08:07;5.1;4;2.4
76043;PMS7003;64740;34.694;33.088;2024-01-16T02:12:33;3.7;3.2;1.8
76043;PMS7003;64740;34.694;33.088;2024-01-16T02:17:43;4.4;3.6;1.8
76043;PMS7003;64740;34.694;33.088;2024-01-16T02:22:42;3.4;2.8;1.5
76043;PMS7003;64740;34.694;33.088;2024-01-16T02:27:33;3.7;2.8;1.5
76043;PMS7003;64740;34.694;33.088;2024-01-16T02:32:33;4.1;3.3;1.6
76043;PMS7003;64740;34.694;33.088;2024-01-16T02:37:51;3.7;3.2;1.7
76043;PMS7003;64740;34.694;33.088;2024-01-16T02:43:01;3.3;2.5;1.4
76043;PMS7003;64740;34.694;33.088;2024-01-16T02:47:49;2.8;2.5;1.1
76043;PMS7003;64740;34.694;33.088;2024-01-16T02:53:15;2.8;2.4;1
76043;PMS7003;64740;34.694;33.088;2024-01-16T02:58:05;2.6;2.3;1
76043;PMS7003;64740;34.694;33.088;2024-01-16T03:03:03;2.6;1.9;0.8
76043;PMS7003;64740;34.694;33.088;2024-01-16T03:07:49;2.1;1.8;0.8
76043;PMS7003;64740;34.694;33.088;2024-01-16T03:13:02;2.7;2.2;0.9
76043;PMS7003;64740;34.694;33.088;2024-01-16T03:18:03;2.6;2.2;1.1
76043;PMS7003;64740;34.694;33.088;2024-01-16T03:22:33;3.5;2.8;1.3
76043;PMS7003;64740;34.694;33.088;2024-01-16T03:27:53;4;2.9;1.6
76043;PMS7003;64740;34.694;33.088;2024-01-16T03:33:05;3.8;3.2;1.9
76043;PMS7003;64740;34.694;33.088;2024-01-16T03:38:15;4.9;4.1;2.5
76043;PMS7003;64740;34.694;33.088;2024-01-16T03:42:45;4;3.4;1.9
76043;PMS7003;64740;34.694;33.088;2024-01-16T03:48:04;3.8;3.3;1.9
76043;PMS7003;64740;34.694;33.088;2024-01-16T03:52:33;4.1;3.6;2.1
76043;PMS7003;64740;34.694;33.088;2024-01-16T03:57:41;4.7;4;2
76043;PMS7003;64740;34.694;33.088;2024-01-16T04:02:53;3.4;3.1;2
76043;PMS7003;64740;34.694;33.088;2024-01-16T04:07:41;4.4;3.7;2.1
76043;PMS7003;64740;34.694;33.088;2024-01-16T04:12:33;5.3;4;2.2
76043;PMS7003;64740;34.694;33.088;2024-01-16T04:18:15;4.3;3.6;2.1
76043;PMS7003;64740;34.694;33.088;2024-01-16T04:22:57;4.9;4.3;2.6
76043;PMS7003;64740;34.694;33.088;2024-01-16T04:28:15;7.2;6.1;3.9
76043;PMS7003;64740;34.694;33.088;2024-01-16T04:33:13;7.5;6.4;3.9
76043;PMS7003;64740;34.694;33.088;2024-01-16T04:37:33;7;6.3;4.3
76043;PMS7003;64740;34.694;33.088;2024-01-16T04:43:15;7.7;6.9;4.6
76043;PMS7003;64740;34.694;33.088;2024-01-16T04:48:15;8.6;6.7;4.2
76043;PMS7003;64740;34.694;33.088;2024-01-16T04:53:04;8.3;6.9;4.5
76043;PMS7003;64740;34.694;33.088;2024-01-16T04:57:41;6.5;6;4.3
76043;PMS7003;64740;34.694;33.088;2024-01-16T05:03:03;7.8;6.9;4.5
76043;PMS7003;64740;34.694;33.088;2024-01-16T05:08:03;7.2;6.1;3.7
76043;PMS7003;64740;34.694;33.088;2024-01-16T05:13:09;8.9;7.3;4.7
76043;PMS7003;64740;34.694;33.088;2024-01-16T05:17:45;10.4;9.6;6.5
76043;PMS7003;64740;34.694;33.088;2024-01-16T05:23:15;10.2;8.7;5.9
76043;PMS7003;64740;34.694;33.088;2024-01-16T05:27:39;8;6.5;3.9
76043;PMS7003;64740;34.694;33.088;2024-01-16T05:32:33;6.2;5.2;3.3
76043;PMS7003;64740;34.694;33.088;2024-01-16T05:37:53;6.6;5.6;3.8
76043;PMS7003;64740;34.694;33.088;2024-01-16T05:42:41;7.3;5.8;3.7
76043;PMS7003;64740;34.694;33.088;2024-01-16T05:47:33;9.8;8.3;5.6
76043;PMS7003;64740;34.694;33.088;2024-01-16T05:53:15;8.5;6.8;4.2
76043;PMS7003;64740;34.694;33.088;2024-01-16T05:57:55;11.3;8.9;5.9
76043;PMS7003;64740;34.694;33.088;2024-01-16T06:03:15;9;7.9;4.6
76043;PMS7003;64740;34.694;33.088;2024-01-16T06:08:17;8.9;6.7;4
76043;PMS7003;64740;34.694;33.088;2024-01-16T06:12:51;9.3;6.7;3.9
76043;PMS7003;64740;34.694;33.088;2024-01-16T06:18:15;7.8;6.5;4.1
76043;PMS7003;64740;34.694;33.088;2024-01-16T06:23:15;6.3;5.2;3.3
76043;PMS7003;64740;34.694;33.088;2024-01-16T06:28:03;6.5;5.5;3.6
76043;PMS7003;64740;34.694;33.088;2024-01-16T06:32:53;7;5.8;3.4
76043;PMS7003;64740;34.694;33.088;2024-01-16T06:37:59;6.7;5.1;3.2
76043;PMS7003;64740;34.694;33.088;2024-01-16T06:43:05;8.6;6.6;3.8
76043;PMS7003;64740;34.694;33.088;2024-01-16T06:48:16;8.5;6.3;4.1
76043;PMS7003;64740;34.694;33.088;2024-01-16T06:52:53;7.2;6.1;3.7
76043;PMS7003;64740;34.694;33.088;2024-01-16T06:58:17;8.6;6.6;3.5
76043;PMS7003;64740;34.694;33.088;2024-01-16T07:02:33;7.7;5.9;3.4
76043;PMS7003;64740;34.694;33.088;2024-01-16T07:07:33;6.9;5.5;3.1
76043;PMS7003;64740;34.694;33.088;2024-01-16T07:12:34;6.4;4.8;2.6
76043;PMS7003;64740;34.694;33.088;2024-01-16T07:17:42;6.3;5.1;3
76043;PMS7003;64740;34.694;33.088;2024-01-16T07:22:34;6.5;5.7;3.4
76043;PMS7003;64740;34.694;33.088;2024-01-16T07:27:33;6.6;5.6;3.1
76043;PMS7003;64740;34.694;33.088;2024-01-16T07:33:08;7.8;5.8;3.3
76043;PMS7003;64740;34.694;33.088;2024-01-16T07:37:34;6.9;5;2.7
76043;PMS7003;64740;34.694;33.088;2024-01-16T07:43:16;5.4;4.1;2.3
76043;PMS7003;64740;34.694;33.088;2024-01-16T07:47:54;4.9;3.5;2
76043;PMS7003;64740;34.694;33.088;2024-01-16T07:53:17;5.4;4.4;2.2
76043;PMS7003;64740;34.694;33.088;2024-01-16T07:57:34;5.4;3.7;1.9
76043;PMS7003;64740;34.694;33.088;2024-01-16T08:02:43;3.9;3;1.8
76043;PMS7003;64740;34.694;33.088;2024-01-16T08:07:50;5.3;3.4;1.9
76043;PMS7003;64740;34.694;33.088;2024-01-16T08:12:52;3.9;3.1;1.8
76043;PMS7003;64740;34.694;33.088;2024-01-16T08:18:18;4.3;3.2;1.5
76043;PMS7003;64740;34.694;33.088;2024-01-16T08:23:16;4.2;3;1.6
76043;PMS7003;64740;34.694;33.088;2024-01-16T08:27:46;3.8;2.9;1.4
76043;PMS7003;64740;34.694;33.088;2024-01-16T08:33:16;4;2.9;1.4
76043;PMS7003;64740;34.694;33.088;2024-01-16T08:38:18;4.2;2.9;1.7
76043;PMS7003;64740;34.694;33.088;2024-01-16T08:43:06;4.7;3.5;1.9
76043;PMS7003;64740;34.694;33.088;2024-01-16T08:47:42;4.3;3.7;2.1
76043;PMS7003;64740;34.694;33.088;2024-01-16T08:52:42;4.4;3;1.7
76043;PMS7003;64740;34.694;33.088;2024-01-16T08:57:50;3.4;2.5;1.3
76043;PMS7003;64740;34.694;33.088;2024-01-16T09:02:42;4.2;3;1.5
76043;PMS7003;64740;34.694;33.088;2024-01-16T09:07:42;4.5;3.1;1.5
76043;PMS7003;64740;34.694;33.088;2024-01-16T09:12:54;4.1;3.3;1.6
76043;PMS7003;64740;34.694;33.088;2024-01-16T09:18:02;4;3.3;1.8
76043;PMS7003;64740;34.694;33.088;2024-01-16T09:22:54;5.4;3.7;2.2
76043;PMS7003;64740;34.694;33.088;2024-01-16T09:28:18;6.7;4.3;2.4
76043;PMS7003;64740;34.694;33.088;2024-01-16T09:33:08;7.1;5;2.6
76043;PMS7003;64740;34.694;33.088;2024-01-16T09:38:04;6.9;5;2.4
76043;PMS7003;64740;34.694;33.088;2024-01-16T09:42:42;6.1;4.7;2.5
76043;PMS7003;64740;34.694;33.088;2024-01-16T09:48:04;6.6;5.1;2.9
76043;PMS7003;64740;34.694;33.088;2024-01-16T09:53:04;6.8;5;2.3
76043;PMS7003;64740;34.694;33.088;2024-01-16T09:58:04;6;4.6;2.4
76043;PMS7003;64740;34.694;33.088;2024-01-16T10:02:54;5.1;3.7;1.8
76043;PMS7003;64740;34.694;33.088;2024-01-16T10:08:16;6.7;4.9;2.5
76043;PMS7003;64740;34.694;33.088;2024-01-16T10:13:18;6.6;4.8;2.4
76043;PMS7003;64740;34.694;33.088;2024-01-16T10:18:06;7.7;5.2;2.7
76043;PMS7003;64740;34.694;33.088;2024-01-16T10:22:42;9.4;6.3;3.3
76043;PMS7003;64740;34.694;33.088;2024-01-16T10:27:44;8.2;6;2.8
76043;PMS7003;64740;34.694;33.088;2024-01-16T10:32:50;6.2;4.6;2.6
76043;PMS7003;64740;34.694;33.088;2024-01-16T10:37:42;8.4;5.7;2.7
76043;PMS7003;64740;34.694;33.088;2024-01-16T10:42:34;22.5;17.7;10.5
76043;PMS7003;64740;34.694;33.088;2024-01-16T10:47:48;35.3;27.4;17.4
76043;PMS7003;64740;34.694;33.088;2024-01-16T10:53:00;7.5;6;3.3
76043;PMS7003;64740;34.694;33.088;2024-01-16T10:57:34;4.8;3.4;1.7
76043;PMS7003;64740;34.694;33.088;2024-01-16T11:03:16;4.9;3.5;1.7
76043;PMS7003;64740;34.694;33.088;2024-01-16T11:07:48;5.6;4.2;2.6
76043;PMS7003;64740;34.694;33.088;2024-01-16T11:13:02;8.2;6.2;3.6
76043;PMS7003;64740;34.694;33.088;2024-01-16T11:17:52;7.9;6.3;3.6
76043;PMS7003;64740;34.694;33.088;2024-01-16T11:23:04;7.1;5.5;2.9
76043;PMS7003;64740;34.694;33.088;2024-01-16T11:28:07;5;4.2;2.2
76043;PMS7003;64740;34.694;33.088;2024-01-16T11:32:56;6.5;4.9;2.6
76043;PMS7003;64740;34.694;33.088;2024-01-16T11:37:48;6.9;5.8;3.2
76043;PMS7003;64740;34.694;33.088;2024-01-16T11:43:37;7;5.3;2.8
76043;PMS7003;64740;34.694;33.088;2024-01-16T11:53:08;6.9;5;2.7
76043;PMS7003;64740;34.694;33.088;2024-01-16T11:58:03;6.4;4.9;2.7
76043;PMS7003;64740;34.694;33.088;2024-01-16T12:02:51;8;5.8;3
76043;PMS7003;64740;34.694;33.088;2024-01-16T12:07:45;9;6.9;3.8
76043;PMS7003;64740;34.694;33.088;2024-01-16T12:12:57;10.5;8.6;4.8
76043;PMS7003;64740;34.694;33.088;2024-01-16T12:17:51;5.6;4.6;2.6
76043;PMS7003;64740;34.694;33.088;2024-01-16T12:22:44;7.6;5.5;2.9
76043;PMS7003;64740;34.694;33.088;2024-01-16T12:28:04;9.5;6.5;3.1
76043;PMS7003;64740;34.694;33.088;2024-01-16T12:33:08;7.5;6.4;3.4
76043;PMS7003;64740;34.694;33.088;2024-01-16T12:38:18;7.7;5.8;3.2
76043;PMS7003;64740;34.694;33.088;2024-01-16T12:43:18;7.4;5.6;3.2
76043;PMS7003;64740;34.694;33.088;2024-01-16T12:47:59;8.2;5.6;2.9
76043;PMS7003;64740;34.694;33.088;2024-01-16T12:53:16;6.9;5.6;3.2
76043;PMS7003;64740;34.694;33.088;2024-01-16T12:58:16;8.5;6.6;3.7
76043;PMS7003;64740;34.694;33.088;2024-01-16T13:03:06;8.3;6.4;3.4
76043;PMS7003;64740;34.694;33.088;2024-01-16T13:07:36;8.2;6.2;3.8
76043;PMS7003;64740;34.694;33.088;2024-01-16T13:12:38;8.3;6.2;3.6
76043;PMS7003;64740;34.694;33.088;2024-01-16T13:18:16;8.8;5.9;3.4
76043;PMS7003;64740;34.694;33.088;2024-01-16T13:22:52;8.6;6.4;3
76043;PMS7003;64740;34.694;33.088;2024-01-16T13:28:02;7.8;6.3;3.7
76043;PMS7003;64740;34.694;33.088;2024-01-16T13:33:08;7.7;6.2;3.7
76043;PMS7003;64740;34.694;33.088;2024-01-16T13:37:36;8.8;6.7;3.7
76043;PMS7003;64740;34.694;33.088;2024-01-16T13:43:00;9.3;6.2;3.6
76043;PMS7003;64740;34.694;33.088;2024-01-16T13:48:06;11.7;8.4;4.6
76043;PMS7003;64740;34.694;33.088;2024-01-16T13:52:44;9.3;7.5;4.5
76043;PMS7003;64740;34.694;33.088;2024-01-16T13:58:18;11.1;8.1;4.8
76043;PMS7003;64740;34.694;33.088;2024-01-16T14:03:08;8.9;6.8;3.7
76043;PMS7003;64740;34.694;33.088;2024-01-16T14:07:36;10;6.8;3.8
76043;PMS7003;64740;34.694;33.088;2024-01-16T14:13:04;9.8;7.5;4.3
76043;PMS7003;64740;34.694;33.088;2024-01-16T14:18:08;9.3;7.8;4
76043;PMS7003;64740;34.694;33.088;2024-01-16T14:22:53;10.7;8.7;5.5
76043;PMS7003;64740;34.694;33.088;2024-01-16T14:28:04;13;10.9;6.8
76043;PMS7003;64740;34.694;33.088;2024-01-16T14:33:08;14.7;12.5;7.5
76043;PMS7003;64740;34.694;33.088;2024-01-16T14:37:50;13.6;10.5;6.4
76043;PMS7003;64740;34.694;33.088;2024-01-16T14:43:04;11.6;9.3;6
76043;PMS7003;64740;34.694;33.088;2024-01-16T14:48:08;11.7;9;5
76043;PMS7003;64740;34.694;33.088;2024-01-16T14:52:52;9;7.3;4.1
76043;PMS7003;64740;34.694;33.088;2024-01-16T14:58:02;8.2;6.3;3.5
76043;PMS7003;64740;34.694;33.088;2024-01-16T15:02:58;8.1;5.8;3.5
76043;PMS7003;64740;34.694;33.088;2024-01-16T15:07:44;8.3;6.4;3.5
76043;PMS7003;64740;34.694;33.088;2024-01-16T15:13:04;8.6;5.9;3.3
76043;PMS7003;64740;34.694;33.088;2024-01-16T15:18:06;7.4;5.7;3.5
76043;PMS7003;64740;34.694;33.088;2024-01-16T15:23:20;8.3;6.4;3.9
76043;PMS7003;64740;34.694;33.088;2024-01-16T15:28:04;8.5;6.8;3.5
76043;PMS7003;64740;34.694;33.088;2024-01-16T15:33:16;9.3;6.7;3.8
76043;PMS7003;64740;34.694;33.088;2024-01-16T15:37:52;8.9;6.4;3.5
76043;PMS7003;64740;34.694;33.088;2024-01-16T15:43:00;9.3;7.1;4.2
76043;PMS7003;64740;34.694;33.088;2024-01-16T15:48:00;10.2;7.6;4.1
76043;PMS7003;64740;34.694;33.088;2024-01-16T15:52:44;8.2;6.3;3.6
76043;PMS7003;64740;34.694;33.088;2024-01-16T15:58:04;8;6.3;3.7
76043;PMS7003;64740;34.694;33.088;2024-01-16T16:03:06;8;6.2;3.7
76043;PMS7003;64740;34.694;33.088;2024-01-16T16:07:53;7.2;6.2;3.7
76043;PMS7003;64740;34.694;33.088;2024-01-16T16:13:04;7.1;6.1;3.4
76043;PMS7003;64740;34.694;33.088;2024-01-16T16:18:08;8.6;6.4;3.5
76043;PMS7003;64740;34.694;33.088;2024-01-16T16:22:44;10.1;7.5;4
76043;PMS7003;64740;34.694;33.088;2024-01-16T16:28:04;10.4;7.4;4.1
76043;PMS7003;64740;34.694;33.088;2024-01-16T16:33:08;11.4;8.8;5.2
76043;PMS7003;64740;34.694;33.088;2024-01-16T16:37:52;13.2;10.5;7.1
76043;PMS7003;64740;34.694;33.088;2024-01-16T16:43:04;14.6;12.8;8.2
76043;PMS7003;64740;34.694;33.088;2024-01-16T16:48:14;24.2;20.1;12.7
76043;PMS7003;64740;34.694;33.088;2024-01-16T16:52:52;23.9;20.6;12.9
76043;PMS7003;64740;34.694;33.088;2024-01-16T16:57:54;24.5;20.9;13.5
76043;PMS7003;64740;34.694;33.088;2024-01-16T17:03:06;24.7;21.3;13.6
76043;PMS7003;64740;34.694;33.088;2024-01-16T17:07:52;25.3;21.7;14
76043;PMS7003;64740;34.694;33.088;2024-01-16T17:13:04;32.9;29.2;18.9
76043;PMS7003;64740;34.694;33.088;2024-01-16T17:17:54;40.6;33.3;21.3
76043;PMS7003;64740;34.694;33.088;2024-01-16T17:22:36;39.3;33;21.7
76043;PMS7003;64740;34.694;33.088;2024-01-16T17:27:52;42;33.3;21.8
76043;PMS7003;64740;34.694;33.088;2024-01-16T17:33:08;42.5;34.2;21.5
76043;PMS7003;64740;34.694;33.088;2024-01-16T17:37:52;39.3;32.1;20.2
76043;PMS7003;64740;34.694;33.088;2024-01-16T17:43:02;29;25.9;16.8
76043;PMS7003;64740;34.694;33.088;2024-01-16T17:47:38;34.6;28.6;18.3
76043;PMS7003;64740;34.694;33.088;2024-01-16T17:52:52;30.7;26.7;16.6
76043;PMS7003;64740;34.694;33.088;2024-01-16T17:58:04;36.9;30.7;19.7
76043;PMS7003;64740;34.694;33.088;2024-01-16T18:03:08;35;29.4;19.2
76043;PMS7003;64740;34.694;33.088;2024-01-16T18:07:37;29.8;26;16.6
76043;PMS7003;64740;34.694;33.088;2024-01-16T18:13:04;27.4;24;15.7
76043;PMS7003;64740;34.694;33.088;2024-01-16T18:18:08;28.4;24.5;15.4
76043;PMS7003;64740;34.694;33.088;2024-01-16T18:22:52;32.3;28;18.3
76043;PMS7003;64740;34.694;33.088;2024-01-16T18:28:05;34.2;29.1;18.3
76043;PMS7003;64740;34.694;33.088;2024-01-16T18:33:08;31.3;27.3;17.5
76043;PMS7003;64740;34.694;33.088;2024-01-16T18:37:52;27.3;20.9;13
76043;PMS7003;64740;34.694;33.088;2024-01-16T18:43:02;15.9;13.3;7.9
76043;PMS7003;64740;34.694;33.088;2024-01-16T18:48:08;11.9;9.3;5.3
76043;PMS7003;64740;34.694;33.088;2024-01-16T18:52:52;9.2;7.7;4
76043;PMS7003;64740;34.694;33.088;2024-01-16T18:58:04;9.2;6.8;3.8
76043;PMS7003;64740;34.694;33.088;2024-01-16T19:03:08;10.1;7.6;4.4
76043;PMS7003;64740;34.694;33.088;2024-01-16T19:07:52;9.5;8.2;4.9
76043;PMS7003;64740;34.694;33.088;2024-01-16T19:13:02;10.5;8.3;4.6
76043;PMS7003;64740;34.694;33.088;2024-01-16T19:18:20;11.4;8.3;4.9
76043;PMS7003;64740;34.694;33.088;2024-01-16T19:22:52;8.9;6.9;4
76043;PMS7003;64740;34.694;33.088;2024-01-16T19:28:02;9.4;7.7;4.3
76043;PMS7003;64740;34.694;33.088;2024-01-16T19:33:08;10.5;7.8;4.4
76043;PMS7003;64740;34.694;33.088;2024-01-16T19:38:02;10.6;8.1;4.6
76043;PMS7003;64740;34.694;33.088;2024-01-16T19:43:00;11.7;8.1;5.1
76043;PMS7003;64740;34.694;33.088;2024-01-16T19:48:16;14.7;11.7;7.2
76043;PMS7003;64740;34.694;33.088;2024-01-16T19:52:52;24.6;20.5;12.8
76043;PMS7003;64740;34.694;33.088;2024-01-16T19:58:02;34.5;29.7;18.3
76043;PMS7003;64740;34.694;33.088;2024-01-16T20:03:18;37.9;30.1;19.3
76043;PMS7003;64740;34.694;33.088;2024-01-16T20:07:36;39.2;31;18.9
76043;PMS7003;64740;34.694;33.088;2024-01-16T20:12:56;35.3;29.8;19.6
76043;PMS7003;64740;34.694;33.088;2024-01-16T20:18:16;33.1;27;17
76043;PMS7003;64740;34.694;33.088;2024-01-16T20:22:44;25.9;22.2;14.5
76043;PMS7003;64740;34.694;33.088;2024-01-16T20:28:02;21.4;18.1;11.5
76043;PMS7003;64740;34.694;33.088;2024-01-16T20:33:20;18.5;15.2;8.8
76043;PMS7003;64740;34.694;33.088;2024-01-16T20:48:18;22.2;18;11
76043;PMS7003;64740;34.694;33.088;2024-01-16T20:52:44;16.6;14;8.9
76043;PMS7003;64740;34.694;33.088;2024-01-16T20:58:02;11.6;8.9;5.1
76043;PMS7003;64740;34.694;33.088;2024-01-16T21:03:00;9.8;7;3.6
76043;PMS7003;64740;34.694;33.088;2024-01-16T21:08:16;8;5.1;2.3
76043;PMS7003;64740;34.694;33.088;2024-01-16T21:13:02;8.4;5.2;2.5
76043;PMS7003;64740;34.694;33.088;2024-01-16T21:18:18;6.6;4.3;1.9
76043;PMS7003;64740;34.694;33.088;2024-01-16T21:22:36;5.9;4.2;2.2
76043;PMS7003;64740;34.694;33.088;2024-01-16T21:27:48;7.2;4.7;1.9
76043;PMS7003;64740;34.694;33.088;2024-01-16T21:33:08;6.1;4.1;2.1
76043;PMS7003;64740;34.694;33.088;2024-01-16T21:37:44;6.9;4.9;2
76043;PMS7003;64740;34.694;33.088;2024-01-16T21:43:02;6.2;3.8;1.8
76043;PMS7003;64740;34.694;33.088;2024-01-16T21:48:18;6.9;4.1;2.1
76043;PMS7003;64740;34.694;33.088;2024-01-16T21:52:44;7.1;5.2;2.4
76043;PMS7003;64740;34.694;33.088;2024-01-16T21:58:02;6;4.4;2
76043;PMS7003;64740;34.694;33.088;2024-01-16T22:03:14;7.4;4.6;2.4
76043;PMS7003;64740;34.694;33.088;2024-01-16T22:07:44;7.1;5.2;2.6
76043;PMS7003;64740;34.694;33.088;2024-01-16T22:13:02;6.7;4.2;1.9
76043;PMS7003;64740;34.694;33.088;2024-01-16T22:18:18;6.8;4.7;2.1
76043;PMS7003;64740;34.694;33.088;2024-01-16T22:22:56;6.8;4;2
76043;PMS7003;64740;34.694;33.088;2024-01-16T22:27:56;6.7;4.3;2.1
76043;PMS7003;64740;34.694;33.088;2024-01-16T22:33:18;7.5;5.1;2.2
76043;PMS7003;64740;34.694;33.088;2024-01-16T22:37:52;6.5;4;2.1
76043;PMS7003;64740;34.694;33.088;2024-01-16T22:43:02;6.6;4.5;2
76043;PMS7003;64740;34.694;33.088;2024-01-16T22:48:16;6.4;4.2;1.9
76043;PMS7003;64740;34.694;33.088;2024-01-16T22:52:52;6.9;5.2;2.4
76043;PMS7003;64740;34.694;33.088;2024-01-16T22:58:02;7;4.8;2.4
76043;PMS7003;64740;34.694;33.088;2024-01-16T23:03:16;7.8;5;2.4
76043;PMS7003;64740;34.694;33.088;2024-01-16T23:07:52;7.8;5.1;2.7
76043;PMS7003;64740;34.694;33.088;2024-01-16T23:12:54;7.5;5;2.7
76043;PMS7003;64740;34.694;33.088;2024-01-16T23:18:16;7.2;5.3;2.4
76043;PMS7003;64740;34.694;33.088;2024-01-16T23:22:52;6.3;4.2;2
76043;PMS7003;64740;34.694;33.088;2024-01-16T23:27:39;7.3;4.7;2.3
76043;PMS7003;64740;34.694;33.088;2024-01-16T23:33:16;5.7;4.4;1.7
76043;PMS7003;64740;34.694;33.088;2024-01-16T23:37:44;6.4;4.9;2.2
76043;PMS7003;64740;34.694;33.088;2024-01-16T23:43:02;6.5;4.1;2.2
76043;PMS7003;64740;34.694;33.088;2024-01-16T23:48:08;7.2;4.7;2
76043;PMS7003;64740;34.694;33.088;2024-01-16T23:53:08;7;4.4;2.2
76043;PMS7003;64740;34.694;33.088;2024-01-16T23:57:48;7.3;5;2.7
